createdAt,value
2018-08-23T00:00:45.935Z,85.73
2018-08-23T00:03:20.600Z,85.83
2018-08-23T00:05:52.298Z,84.84
2018-08-23T00:08:22.744Z,85.35
2018-08-23T00:10:53.206Z,84.94
2018-08-23T00:13:24.071Z,85.72
2018-08-23T00:15:53.622Z,85.93
2018-08-23T00:18:23.144Z,85.84
2018-08-23T00:20:52.601Z,85.85
2018-08-23T00:23:22.172Z,85.74
2018-08-23T00:25:51.466Z,85.80
2018-08-23T00:28:20.903Z,85.80
2018-08-23T00:30:51.059Z,86.55
2018-08-23T00:33:20.386Z,85.99
2018-08-23T00:35:49.690Z,85.99
2018-08-23T00:38:19.140Z,85.88
2018-08-23T00:40:48.878Z,85.99
2018-08-23T00:43:18.367Z,86.36
2018-08-23T00:45:47.578Z,86.88
2018-08-23T00:48:16.788Z,86.38
2018-08-23T00:50:54.706Z,86.96
2018-08-23T00:53:24.215Z,86.88
2018-08-23T00:56:10.683Z,87.19
2018-08-23T00:58:41.710Z,87.37
2018-08-23T01:01:12.878Z,87.52
2018-08-23T01:03:42.918Z,88.06
2018-08-23T01:06:13.003Z,88.60
2018-08-23T01:08:42.287Z,88.91
2018-08-23T01:11:12.031Z,88.66
2018-08-23T01:13:41.894Z,88.33
2018-08-23T01:16:13.498Z,88.51
2018-08-23T01:18:43.311Z,87.90
2018-08-23T01:21:12.878Z,87.96
2018-08-23T01:23:43.543Z,88.29
2018-08-23T01:26:12.948Z,87.98
2018-08-23T01:28:42.434Z,88.11
2018-08-23T01:31:25.342Z,88.39
2018-08-23T01:33:57.360Z,88.74
2018-08-23T01:36:31.881Z,89.44
2018-08-23T01:39:05.408Z,89.35
2018-08-23T01:41:34.921Z,89.71
2018-08-23T01:44:04.459Z,89.64
2018-08-23T01:46:39.243Z,89.87
2018-08-23T01:49:09.712Z,89.57
2018-08-23T01:51:39.041Z,90.03
2018-08-23T01:54:08.596Z,89.51
2018-08-23T01:56:38.306Z,89.44
2018-08-23T01:59:07.855Z,89.82
2018-08-23T02:01:37.139Z,89.31
2018-08-23T02:04:07.071Z,89.43
2018-08-23T02:06:36.944Z,88.60
2018-08-23T02:09:08.203Z,88.99
2018-08-23T02:11:37.970Z,88.54
2018-08-23T02:14:07.500Z,88.25
2018-08-23T02:16:48.247Z,89.21
2018-08-23T02:19:17.572Z,88.92
2018-08-23T02:21:47.091Z,89.16
2018-08-23T02:24:20.774Z,89.12
2018-08-23T02:26:50.190Z,89.70
2018-08-23T02:29:29.414Z,90.42
2018-08-23T02:31:58.816Z,91.06
2018-08-23T02:34:32.449Z,91.31
2018-08-23T02:37:01.779Z,91.68
2018-08-23T02:39:31.215Z,92.05
2018-08-23T02:42:00.932Z,92.12
2018-08-23T02:44:30.215Z,92.04
2018-08-23T02:47:00.393Z,92.35
2018-08-23T02:49:30.183Z,91.97
2018-08-23T02:51:59.827Z,92.34
2018-08-23T02:54:29.270Z,92.17
2018-08-23T02:56:59.826Z,92.34
2018-08-23T02:59:30.170Z,92.66
2018-08-23T03:01:59.442Z,92.89
2018-08-23T03:04:29.627Z,93.33
2018-08-23T03:07:04.959Z,93.41
2018-08-23T03:09:36.583Z,93.36
2018-08-23T03:12:11.498Z,93.32
2018-08-23T03:14:41.604Z,93.28
2018-08-23T03:17:24.478Z,93.83
2018-08-23T03:20:02.613Z,94.19
2018-08-23T03:22:33.216Z,94.83
2018-08-23T03:25:04.331Z,95.66
2018-08-23T03:27:33.824Z,95.39
2018-08-23T03:30:04.410Z,94.88
2018-08-23T03:32:33.648Z,94.61
2018-08-23T03:35:03.178Z,93.98
2018-08-23T03:37:32.416Z,94.47
2018-08-23T03:40:01.734Z,94.46
2018-08-23T03:42:31.222Z,94.97
2018-08-23T03:45:01.754Z,95.04
2018-08-23T03:47:38.102Z,94.17
2018-08-23T03:50:09.168Z,95.46
2018-08-23T03:52:39.383Z,95.61
2018-08-23T03:55:10.775Z,95.98
2018-08-23T03:57:45.321Z,95.59
2018-08-23T04:00:14.789Z,95.95
2018-08-23T04:02:44.262Z,96.69
2018-08-23T04:05:18.806Z,96.51
2018-08-23T04:07:48.207Z,96.47
2018-08-23T04:10:17.711Z,97.04
2018-08-23T04:12:47.195Z,96.81
2018-08-23T04:15:24.159Z,96.29
2018-08-23T04:17:53.644Z,96.60
2018-08-23T04:20:23.780Z,97.08
2018-08-23T04:22:53.695Z,97.01
2018-08-23T04:25:22.967Z,97.21
2018-08-23T04:27:52.644Z,97.28
2018-08-23T04:30:22.163Z,96.91
2018-08-23T04:32:52.134Z,98.10
2018-08-23T04:35:25.008Z,97.76
2018-08-23T04:37:54.517Z,97.49
2018-08-23T04:40:24.337Z,97.79
2018-08-23T04:42:54.290Z,98.21
2018-08-23T04:45:24.970Z,98.96
2018-08-23T04:48:06.143Z,99.23
2018-08-23T04:50:36.137Z,98.38
2018-08-23T04:53:05.375Z,98.48
2018-08-23T04:55:34.594Z,98.69
2018-08-23T04:58:04.784Z,99.01
2018-08-23T05:00:34.442Z,97.84
2018-08-23T05:03:03.990Z,97.64
2018-08-23T05:05:33.696Z,97.71
2018-08-23T05:08:03.176Z,97.67
2018-08-23T05:10:32.635Z,97.41
2018-08-23T05:13:01.952Z,97.16
2018-08-23T05:15:31.444Z,97.62
2018-08-23T05:18:00.967Z,98.33
2018-08-23T05:20:30.554Z,99.00
2018-08-23T05:23:03.494Z,98.04
2018-08-23T05:25:32.957Z,97.07
2018-08-23T05:28:20.694Z,96.74
2018-08-23T05:30:50.723Z,96.58
2018-08-23T05:33:21.515Z,96.48
2018-08-23T05:35:50.890Z,96.36
2018-08-23T05:38:21.102Z,97.38
2018-08-23T05:40:55.459Z,96.57
2018-08-23T05:43:25.891Z,96.50
2018-08-23T05:45:57.309Z,95.10
2018-08-23T05:48:29.656Z,94.45
2018-08-23T05:51:08.406Z,94.40
2018-08-23T05:53:50.739Z,94.37
2018-08-23T05:56:20.599Z,94.44
2018-08-23T05:58:49.999Z,93.83
2018-08-23T06:01:19.488Z,93.86
2018-08-23T06:03:49.182Z,93.45
2018-08-23T06:06:18.678Z,93.33
2018-08-23T06:08:50.336Z,93.48
2018-08-23T06:11:19.788Z,92.35
2018-08-23T06:13:49.290Z,92.72
2018-08-23T06:16:18.554Z,91.13
2018-08-23T06:18:48.085Z,91.80
2018-08-23T06:21:17.547Z,92.85
2018-08-23T06:23:55.120Z,92.67
2018-08-23T06:26:37.522Z,92.74
2018-08-23T06:29:07.226Z,93.01
2018-08-23T06:31:43.774Z,93.10
2018-08-23T06:34:13.141Z,91.50
2018-08-23T06:36:46.685Z,90.76
2018-08-23T06:39:16.074Z,90.59
2018-08-23T06:41:45.609Z,89.60
2018-08-23T06:44:15.074Z,90.44
2018-08-23T06:46:45.299Z,90.07
2018-08-23T06:49:14.519Z,89.49
2018-08-23T06:51:44.047Z,88.93
2018-08-23T06:54:13.498Z,88.77
2018-08-23T06:56:42.987Z,90.49
2018-08-23T06:59:12.694Z,91.25
2018-08-23T07:01:47.832Z,90.41
2018-08-23T07:04:17.226Z,91.07
2018-08-23T07:06:46.834Z,90.82
2018-08-23T07:09:17.659Z,89.52
2018-08-23T07:11:47.026Z,88.75
2018-08-23T07:14:17.475Z,89.94
2018-08-23T07:16:50.567Z,88.34
2018-08-23T07:19:32.338Z,87.92
2018-08-23T07:22:03.300Z,90.07
2018-08-23T07:24:43.213Z,88.90
2018-08-23T07:27:14.209Z,90.27
2018-08-23T07:29:45.639Z,89.37
2018-08-23T07:32:19.214Z,88.31
2018-08-23T07:35:01.239Z,85.95
2018-08-23T07:37:32.376Z,86.40
2018-08-23T07:40:06.811Z,87.23
2018-08-23T07:42:36.903Z,88.42
2018-08-23T07:45:07.454Z,88.14
2018-08-23T07:47:43.211Z,86.45
2018-08-23T07:50:12.650Z,85.55
2018-08-23T07:52:45.299Z,84.72
2018-08-23T07:55:14.701Z,84.06
2018-08-23T07:57:45.083Z,82.85
2018-08-23T08:00:38.102Z,83.49
2018-08-23T08:03:08.486Z,81.08
2018-08-23T08:05:40.759Z,78.06
2018-08-23T08:08:11.599Z,81.39
2018-08-23T08:10:42.972Z,81.27
2018-08-23T08:13:12.582Z,81.47
2018-08-23T08:15:42.146Z,82.16
2018-08-23T08:18:23.581Z,78.87
2018-08-23T08:21:04.018Z,77.30
2018-08-23T08:23:33.909Z,76.45
2018-08-23T08:26:03.275Z,76.00
2018-08-23T08:28:32.943Z,70.32
2018-08-23T08:31:02.946Z,73.17
2018-08-23T08:33:36.819Z,73.76
2018-08-23T08:36:07.038Z,68.39
2018-08-23T08:38:36.974Z,63.06
2018-08-23T08:41:06.345Z,56.57
2018-08-23T08:43:35.708Z,64.01
2018-08-23T08:46:05.036Z,63.09
2018-08-23T08:48:35.421Z,64.24
2018-08-23T08:51:20.944Z,68.98
2018-08-23T08:53:50.213Z,68.90
2018-08-23T08:56:59.003Z,67.90
2018-08-23T08:59:31.078Z,64.92
2018-08-23T09:02:01.138Z,65.23
2018-08-23T09:04:36.126Z,63.92
2018-08-23T09:07:05.648Z,65.25
2018-08-23T09:09:39.429Z,70.06
2018-08-23T09:12:11.108Z,70.02
2018-08-23T09:14:42.128Z,70.61
2018-08-23T09:17:27.988Z,68.90
2018-08-23T09:20:02.219Z,65.70
2018-08-23T09:22:36.658Z,65.35
2018-08-23T09:25:08.415Z,70.06
2018-08-23T09:27:37.902Z,69.39
2018-08-23T09:30:13.086Z,70.37
2018-08-23T09:32:42.613Z,68.17
2018-08-23T09:35:12.310Z,64.41
2018-08-23T09:37:42.002Z,59.14
2018-08-23T09:40:11.363Z,54.76
2018-08-23T09:42:40.643Z,58.23
2018-08-23T09:45:13.304Z,56.05
2018-08-23T09:47:43.180Z,53.32
2018-08-23T09:50:12.719Z,52.75
2018-08-23T09:52:44.227Z,52.95
2018-08-23T09:55:15.814Z,50.88
2018-08-23T09:57:45.871Z,49.99
2018-08-23T10:00:19.543Z,48.49
2018-08-23T10:04:59.931Z,51.47
2018-08-23T10:07:34.479Z,52.84
2018-08-23T10:10:09.308Z,50.79
2018-08-23T10:12:43.887Z,52.23
2018-08-23T10:15:18.665Z,50.73
2018-08-23T10:17:53.463Z,51.20
2018-08-23T10:20:28.006Z,48.65
2018-08-23T10:23:16.071Z,44.36
2018-08-23T10:25:47.659Z,43.41
2018-08-23T10:28:18.853Z,42.26
2018-08-23T10:30:48.857Z,42.31
2018-08-23T10:33:18.710Z,45.42
2018-08-23T10:35:52.399Z,42.46
2018-08-23T10:38:23.440Z,40.21
2018-08-23T10:40:54.559Z,39.88
2018-08-23T10:43:29.380Z,40.36
2018-08-23T10:46:02.931Z,36.49
2018-08-23T10:48:32.526Z,36.71
2018-08-23T10:51:02.089Z,40.51
2018-08-23T10:53:32.725Z,40.26
2018-08-23T10:56:02.023Z,40.12
2018-08-23T10:58:31.527Z,42.25
2018-08-23T11:01:01.246Z,41.09
2018-08-23T11:03:30.906Z,43.63
2018-08-23T11:06:00.467Z,42.78
2018-08-23T11:08:36.089Z,42.26
2018-08-23T11:11:10.894Z,41.52
2018-08-23T11:13:48.156Z,40.87
2018-08-23T11:16:23.791Z,40.47
2018-08-23T11:18:58.575Z,41.65
2018-08-23T11:21:27.811Z,41.52
2018-08-23T11:23:57.290Z,40.18
2018-08-23T11:26:26.788Z,38.22
2018-08-23T11:28:56.112Z,38.20
2018-08-23T11:31:29.919Z,36.49
2018-08-23T11:34:00.007Z,39.13
2018-08-23T11:36:29.507Z,35.93
2018-08-23T11:38:58.745Z,34.95
2018-08-23T11:41:28.115Z,33.13
2018-08-23T11:43:57.730Z,31.24
2018-08-23T11:46:27.813Z,30.31
2018-08-23T11:48:57.323Z,32.24
2018-08-23T11:51:26.781Z,31.70
2018-08-23T11:53:56.065Z,31.57
2018-08-23T11:56:25.370Z,31.99
2018-08-23T11:58:55.085Z,31.19
2018-08-23T12:01:24.550Z,35.60
2018-08-23T12:03:53.910Z,34.24
2018-08-23T12:06:23.410Z,33.37
2018-08-23T12:08:52.855Z,36.59
2018-08-23T12:11:22.191Z,35.78
2018-08-23T12:13:52.130Z,35.30
2018-08-23T12:16:21.819Z,37.65
2018-08-23T12:18:51.321Z,38.58
2018-08-23T12:21:21.111Z,37.60
2018-08-23T12:23:50.521Z,37.74
2018-08-23T12:26:20.165Z,37.05
2018-08-23T12:28:54.693Z,36.92
2018-08-23T12:31:24.428Z,38.17
2018-08-23T12:33:53.937Z,37.44
2018-08-23T12:36:28.828Z,38.59
2018-08-23T12:39:03.294Z,37.86
2018-08-23T12:41:38.926Z,37.08
2018-08-23T12:44:09.072Z,36.80
2018-08-23T12:46:38.447Z,38.51
2018-08-23T12:49:07.761Z,38.49
2018-08-23T12:51:37.194Z,39.30
2018-08-23T12:54:07.193Z,39.49
2018-08-23T12:56:36.619Z,39.34
2018-08-23T12:59:07.301Z,39.67
2018-08-23T13:01:37.232Z,39.93
2018-08-23T13:04:06.913Z,40.34
2018-08-23T13:06:36.458Z,39.69
2018-08-23T13:09:06.804Z,39.98
2018-08-23T13:11:36.319Z,39.63
2018-08-23T13:14:05.827Z,40.80
2018-08-23T13:16:35.291Z,39.02
2018-08-23T13:19:04.851Z,39.07
2018-08-23T13:21:34.109Z,39.02
2018-08-23T13:24:03.907Z,39.40
2018-08-23T13:26:38.941Z,40.71
2018-08-23T13:29:08.359Z,40.36
2018-08-23T13:31:37.892Z,41.38
2018-08-23T13:34:07.454Z,40.91
2018-08-23T13:36:37.373Z,40.28
2018-08-23T13:39:10.482Z,41.79
2018-08-23T13:41:40.200Z,41.43
2018-08-23T13:44:09.766Z,41.57
2018-08-23T13:46:40.050Z,40.15
2018-08-23T13:49:09.513Z,40.38
2018-08-23T13:51:39.210Z,41.40
2018-08-23T13:54:08.455Z,41.40
2018-08-23T13:56:37.854Z,42.10
2018-08-23T13:59:07.755Z,41.96
2018-08-23T14:01:37.058Z,41.96
2018-08-23T14:04:06.960Z,42.87
2018-08-23T14:06:36.478Z,45.11
2018-08-23T14:09:06.898Z,45.87
2018-08-23T14:11:36.318Z,47.37
2018-08-23T14:14:05.863Z,46.53
2018-08-23T14:16:35.350Z,46.33
2018-08-23T14:19:05.232Z,47.97
2018-08-23T14:21:34.747Z,45.62
2018-08-23T14:24:04.238Z,44.87
2018-08-23T14:26:33.780Z,45.36
2018-08-23T14:29:03.276Z,47.42
2018-08-23T14:31:32.763Z,46.15
2018-08-23T14:34:02.263Z,46.16
2018-08-23T14:36:32.250Z,46.26
2018-08-23T14:39:01.651Z,48.07
2018-08-23T14:41:31.200Z,47.52
2018-08-23T14:44:00.686Z,47.89
2018-08-23T14:46:36.096Z,48.28
2018-08-23T14:49:05.636Z,48.89
2018-08-23T14:51:34.971Z,48.37
2018-08-23T14:54:08.634Z,48.08
2018-08-23T14:56:43.285Z,47.91
2018-08-23T14:59:13.090Z,47.18
2018-08-23T15:01:42.575Z,46.76
2018-08-23T15:04:12.097Z,46.70
2018-08-23T15:06:41.588Z,46.92
2018-08-23T15:09:11.616Z,47.35
2018-08-23T15:11:40.972Z,48.09
2018-08-23T15:14:10.595Z,48.61
2018-08-23T15:16:40.077Z,47.81
2018-08-23T15:19:09.532Z,48.67
2018-08-23T15:21:39.051Z,48.22
2018-08-23T15:24:08.779Z,48.03
2018-08-23T15:26:38.398Z,47.23
2018-08-23T15:29:12.192Z,47.51
2018-08-23T15:31:43.372Z,47.64
2018-08-23T15:34:13.149Z,46.29
2018-08-23T15:36:42.522Z,47.25
2018-08-23T15:39:14.203Z,47.05
2018-08-23T15:41:43.982Z,47.41
2018-08-23T15:44:14.238Z,45.88
2018-08-23T15:46:46.547Z,46.99
2018-08-23T15:49:16.727Z,47.50
2018-08-23T15:51:46.638Z,47.30
2018-08-23T15:54:18.236Z,47.19
2018-08-23T15:56:48.119Z,48.05
2018-08-23T15:59:17.810Z,50.40
2018-08-23T16:01:47.103Z,50.30
2018-08-23T16:04:16.619Z,50.38
2018-08-23T16:06:46.085Z,51.29
2018-08-23T16:09:15.626Z,50.58
2018-08-23T16:11:45.312Z,51.44
2018-08-23T16:14:14.798Z,51.37
2018-08-23T16:16:49.615Z,52.95
2018-08-23T16:19:24.419Z,53.00
2018-08-23T16:21:55.656Z,53.34
2018-08-23T16:24:26.758Z,53.22
2018-08-23T16:27:01.264Z,54.86
2018-08-23T16:29:30.716Z,53.83
2018-08-23T16:32:00.253Z,53.81
2018-08-23T16:34:30.058Z,54.54
2018-08-23T16:36:59.265Z,53.58
2018-08-23T16:39:28.723Z,55.03
2018-08-23T16:41:58.226Z,55.33
2018-08-23T16:44:28.147Z,56.17
2018-08-23T16:46:57.650Z,56.43
2018-08-23T16:49:27.564Z,56.24
2018-08-23T16:51:57.035Z,56.59
2018-08-23T16:54:26.854Z,56.98
2018-08-23T16:56:56.051Z,57.04
2018-08-23T16:59:25.435Z,57.22
2018-08-23T17:01:54.695Z,57.78
2018-08-23T17:04:54.883Z,56.63
2018-08-23T17:07:24.582Z,56.81
2018-08-23T17:09:53.898Z,57.48
2018-08-23T17:12:23.134Z,56.82
2018-08-23T17:14:52.480Z,56.51
2018-08-23T17:17:29.124Z,57.34
2018-08-23T17:19:58.439Z,56.81
2018-08-23T17:22:29.159Z,56.09
2018-08-23T17:24:59.000Z,56.02
2018-08-23T17:27:29.622Z,57.12
2018-08-23T17:29:58.987Z,57.55
2018-08-23T17:32:28.420Z,55.94
2018-08-23T17:34:57.763Z,56.56
2018-08-23T17:37:27.246Z,57.88
2018-08-23T17:39:57.035Z,58.97
2018-08-23T17:42:31.487Z,57.82
2018-08-23T17:45:00.963Z,59.15
2018-08-23T17:47:30.985Z,59.73
2018-08-23T17:50:00.944Z,59.61
2018-08-23T17:52:30.449Z,59.72
2018-08-23T17:54:59.975Z,60.39
2018-08-23T17:57:29.844Z,60.58
2018-08-23T17:59:59.369Z,61.35
2018-08-23T18:02:28.887Z,60.69
2018-08-23T18:04:58.343Z,61.10
2018-08-23T18:07:27.889Z,60.70
2018-08-23T18:09:57.342Z,60.93
2018-08-23T18:12:26.881Z,61.81
2018-08-23T18:14:56.221Z,61.23
2018-08-23T18:17:25.681Z,60.72
2018-08-23T18:19:54.902Z,61.33
2018-08-23T18:22:24.295Z,61.59
2018-08-23T18:24:53.778Z,61.82
2018-08-23T18:27:23.291Z,62.30
2018-08-23T18:29:52.829Z,63.71
2018-08-23T18:32:22.360Z,63.55
2018-08-23T18:34:51.787Z,64.51
2018-08-23T18:37:21.383Z,64.39
2018-08-23T18:39:50.793Z,65.27
2018-08-23T18:42:20.330Z,65.16
2018-08-23T18:44:49.611Z,64.72
2018-08-23T18:47:19.122Z,65.00
2018-08-23T18:49:48.666Z,64.89
2018-08-23T18:52:17.871Z,64.46
2018-08-23T18:54:47.438Z,65.26
2018-08-23T18:57:17.139Z,65.52
2018-08-23T18:59:46.662Z,66.32
2018-08-23T19:02:16.947Z,66.81
2018-08-23T19:04:46.466Z,65.88
2018-08-23T19:07:21.286Z,66.22
2018-08-23T19:09:54.818Z,66.63
2018-08-23T19:12:24.603Z,66.77
2018-08-23T19:14:53.919Z,67.56
2018-08-23T19:17:28.599Z,66.92
2018-08-23T19:19:58.123Z,66.73
2018-08-23T19:22:27.548Z,67.17
2018-08-23T19:24:57.146Z,66.58
2018-08-23T19:27:27.225Z,67.51
2018-08-23T19:29:56.694Z,67.15
2018-08-23T19:32:26.174Z,67.91
2018-08-23T19:34:55.707Z,67.91
2018-08-23T19:37:25.662Z,67.95
2018-08-23T19:39:55.328Z,68.81
2018-08-23T19:42:25.023Z,68.83
2018-08-23T19:44:57.275Z,68.84
2018-08-23T19:47:31.926Z,67.90
2018-08-23T19:50:03.054Z,67.98
2018-08-23T19:52:33.252Z,68.21
2018-08-23T19:55:02.580Z,68.83
2018-08-23T19:57:31.868Z,68.87
2018-08-23T20:00:01.423Z,68.96
2018-08-23T20:02:30.867Z,69.79
2018-08-23T20:05:00.603Z,70.12
2018-08-23T20:07:30.147Z,70.52
2018-08-23T20:09:59.966Z,70.39
2018-08-23T20:12:29.873Z,69.78
2018-08-23T20:14:59.635Z,69.74
2018-08-23T20:17:29.188Z,69.84
2018-08-23T20:19:58.830Z,69.49
2018-08-23T20:22:28.363Z,70.59
2018-08-23T20:24:57.615Z,70.41
2018-08-23T20:27:26.978Z,70.86
2018-08-23T20:29:56.462Z,71.11
2018-08-23T20:32:26.021Z,71.40
2018-08-23T20:34:55.466Z,71.64
2018-08-23T20:37:24.985Z,72.74
2018-08-23T20:39:54.496Z,72.23
2018-08-23T20:42:23.811Z,73.04
2018-08-23T20:44:53.291Z,72.34
2018-08-23T20:47:23.282Z,73.23
2018-08-23T20:49:52.557Z,73.21
2018-08-23T20:52:22.024Z,72.90
2018-08-23T20:54:51.517Z,72.20
2018-08-23T20:57:21.002Z,72.50
2018-08-23T20:59:50.232Z,72.40
2018-08-23T21:02:20.517Z,72.14
2018-08-23T21:04:50.168Z,72.63
2018-08-23T21:07:19.666Z,73.16
2018-08-23T21:09:49.644Z,72.72
2018-08-23T21:12:18.912Z,73.48
2018-08-23T21:14:48.636Z,72.77
2018-08-23T21:17:18.070Z,73.24
2018-08-23T21:19:47.403Z,73.19
2018-08-23T21:22:17.071Z,73.67
2018-08-23T21:24:46.418Z,73.29
2018-08-23T21:27:15.936Z,72.11
2018-08-23T21:29:45.396Z,72.54
2018-08-23T21:32:14.940Z,72.04
2018-08-23T21:34:44.405Z,72.27
2018-08-23T21:37:14.394Z,72.98
2018-08-23T21:39:43.827Z,73.06
2018-08-23T21:42:13.347Z,72.83
2018-08-23T21:44:42.839Z,73.03
2018-08-23T21:47:12.342Z,72.83
2018-08-23T21:49:41.862Z,72.83
2018-08-23T21:52:11.365Z,72.71
2018-08-23T21:54:40.866Z,72.98
2018-08-23T21:57:10.175Z,72.42
2018-08-23T21:59:39.652Z,72.80
2018-08-23T22:02:13.943Z,72.78
2018-08-23T22:04:48.471Z,72.51
2018-08-23T22:07:17.899Z,72.11
2018-08-23T22:09:52.898Z,73.41
2018-08-23T22:12:24.116Z,73.25
2018-08-23T22:14:54.762Z,73.10
2018-08-23T22:17:24.690Z,72.86
2018-08-23T22:19:54.346Z,72.29
2018-08-23T22:22:23.910Z,72.78
2018-08-23T22:24:53.611Z,71.91
2018-08-23T22:27:23.175Z,71.97
2018-08-23T22:29:52.870Z,71.49
2018-08-23T22:32:22.278Z,72.32
2018-08-23T22:34:51.955Z,73.29
2018-08-23T22:37:21.474Z,72.03
2018-08-23T22:39:50.787Z,72.72
2018-08-23T22:42:20.327Z,72.31
2018-08-23T22:44:49.812Z,71.24
2018-08-23T22:47:19.314Z,71.45
2018-08-23T22:49:48.605Z,72.09
2018-08-23T22:52:17.798Z,71.70
2018-08-23T22:54:47.391Z,72.76
2018-08-23T22:57:16.902Z,71.65
2018-08-23T22:59:46.430Z,72.20
2018-08-23T23:02:21.083Z,72.49
2018-08-23T23:04:50.344Z,72.36
2018-08-23T23:07:19.821Z,72.28
2018-08-23T23:09:49.171Z,72.51
2018-08-23T23:12:18.666Z,73.02
2018-08-23T23:14:48.157Z,73.21
2018-08-23T23:17:17.643Z,72.91
2018-08-23T23:19:47.010Z,72.66
2018-08-23T23:22:16.987Z,72.45
2018-08-23T23:24:51.550Z,72.89
2018-08-23T23:27:21.008Z,73.01
2018-08-23T23:29:50.489Z,73.29
2018-08-23T23:32:20.002Z,73.29
2018-08-23T23:34:49.503Z,73.28
2018-08-23T23:37:18.820Z,73.11
2018-08-23T23:39:48.295Z,73.71
2018-08-23T23:42:17.638Z,73.93
2018-08-23T23:44:47.734Z,73.64
2018-08-23T23:47:17.242Z,73.17
2018-08-23T23:49:46.783Z,72.93
2018-08-23T23:52:16.272Z,73.15
2018-08-23T23:54:45.759Z,73.84
2018-08-23T23:57:15.748Z,73.82
2018-08-23T23:59:45.193Z,73.76
